Time;durP1;ratioP1;P1;durP2;ratioP2;P2;SDS_P1;SDS_P2;PMS_P1;PMS_P2;Temp;Humidity;BMP_temperature;BMP_pressure;BME280_temperature;BME280_humidity;BME280_pressure;Samples;Min_cycle;Max_cycle;Signal;HPM_P1;HPM_P2
2022/12/22 03:26:49;;;;;;;99.18;69.30;;;6.40;99.90;;;;;;5046248;28;20029;-75
2022/12/22 03:29:15;;;;;;;101.45;68.00;;;6.30;99.90;;;;;;5046494;28;20096;-74
2022/12/22 03:31:41;;;;;;;94.82;66.63;;;6.30;99.90;;;;;;5051118;28;20021;-75
2022/12/22 03:34:07;;;;;;;99.53;70.97;;;6.30;99.90;;;;;;5051483;28;20154;-72
2022/12/22 03:36:33;;;;;;;106.68;67.32;;;6.40;99.90;;;;;;5051250;28;20476;-72
2022/12/22 03:38:59;;;;;;;104.53;68.93;;;6.50;99.90;;;;;;5051938;28;20024;-72
2022/12/22 03:46:53;;;;;;;93.07;63.42;;;6.50;99.90;;;;;;5051109;28;20025;-74
2022/12/22 03:49:21;;;;;;;93.68;62.70;;;6.60;99.90;;;;;;5051602;28;20024;-76
2022/12/22 03:51:49;;;;;;;89.28;62.38;;;6.50;99.90;;;;;;5051184;28;20028;-76
2022/12/22 03:54:17;;;;;;;87.13;61.88;;;6.50;99.90;;;;;;5051409;28;20047;-72
2022/12/22 03:56:44;;;;;;;91.80;64.88;;;6.50;99.90;;;;;;5045950;28;20021;-70
2022/12/22 03:59:11;;;;;;;98.85;64.13;;;6.60;99.90;;;;;;5042131;28;20037;-70
2022/12/22 04:01:41;;;;;;;95.35;63.08;;;6.60;99.90;;;;;;5039917;28;20033;-70
2022/12/22 04:04:08;;;;;;;85.68;61.58;;;6.60;99.90;;;;;;5043674;28;20036;-71
2022/12/22 04:06:33;;;;;;;118.20;74.68;;;6.70;99.90;;;;;;5045646;28;20017;-70
2022/12/22 04:08:59;;;;;;;140.77;92.60;;;6.60;99.90;;;;;;5044170;28;20037;-70
2022/12/22 04:14:09;;;;;;;131.98;85.95;;;6.60;99.90;;;;;;5040560;28;20116;-70
2022/12/22 04:16:35;;;;;;;114.95;76.30;;;6.60;99.90;;;;;;5054423;28;20449;-70
2022/12/22 04:19:01;;;;;;;109.43;72.18;;;6.50;99.90;;;;;;5054334;28;20029;-71
2022/12/22 04:21:27;;;;;;;95.38;65.03;;;6.40;99.90;;;;;;5054560;28;20045;-71
2022/12/22 04:23:53;;;;;;;100.18;68.72;;;6.40;99.90;;;;;;5050777;28;20613;-71
2022/12/22 04:26:21;;;;;;;104.82;69.72;;;6.50;99.90;;;;;;5044803;28;20029;-69
2022/12/22 04:28:47;;;;;;;97.68;67.35;;;6.50;99.90;;;;;;5054548;28;20028;-72
2022/12/22 04:31:13;;;;;;;99.03;67.60;;;6.60;99.90;;;;;;5053822;28;20021;-71
2022/12/22 04:33:39;;;;;;;101.55;64.95;;;6.60;99.90;;;;;;5054345;28;20060;-70
2022/12/22 04:36:05;;;;;;;94.88;63.40;;;6.60;99.90;;;;;;5053897;28;20503;-70
2022/12/22 04:38:31;;;;;;;97.90;66.30;;;6.60;99.90;;;;;;5052306;28;20025;-70
2022/12/22 04:40:56;;;;;;;90.97;59.47;;;6.60;99.90;;;;;;5053892;28;20032;-71
2022/12/22 04:43:22;;;;;;;98.10;63.70;;;6.60;99.90;;;;;;5051002;28;20029;-71
2022/12/22 04:45:52;;;;;;;96.55;66.47;;;6.70;99.90;;;;;;5045289;28;20075;-76
2022/12/22 04:48:19;;;;;;;100.78;64.07;;;6.60;99.90;;;;;;5053445;28;20495;-71
2022/12/22 04:50:44;;;;;;;91.15;63.28;;;6.60;99.90;;;;;;5051300;28;20017;-70
2022/12/22 04:53:10;;;;;;;92.68;63.33;;;6.70;99.90;;;;;;5053329;28;20025;-70
2022/12/22 04:55:36;;;;;;;89.75;64.15;;;6.60;99.90;;;;;;5042851;28;20029;-71
2022/12/22 04:58:02;;;;;;;92.28;61.67;;;6.50;99.90;;;;;;5051972;28;20029;-77
2022/12/22 05:00:28;;;;;;;105.88;73.00;;;6.50;99.90;;;;;;5047386;28;20076;-78
2022/12/22 05:02:54;;;;;;;113.93;74.80;;;6.60;99.90;;;;;;5046934;28;20439;-69
2022/12/22 05:05:19;;;;;;;106.28;68.28;;;6.50;99.90;;;;;;5043826;28;20108;-70
2022/12/22 05:07:45;;;;;;;108.32;67.72;;;6.60;99.90;;;;;;5053526;28;20057;-70
2022/12/22 05:10:11;;;;;;;103.97;66.95;;;6.60;99.90;;;;;;5051588;28;20909;-71
2022/12/22 05:12:55;;;;;;;91.22;62.00;;;6.60;99.90;;;;;;5042474;28;20085;-71
2022/12/22 05:15:26;;;;;;;93.80;61.38;;;6.70;99.90;;;;;;5052889;28;20056;-70
2022/12/22 05:17:52;;;;;;;94.80;62.05;;;6.70;99.90;;;;;;5052808;28;20029;-70
2022/12/22 05:20:19;;;;;;;99.43;66.80;;;6.60;99.90;;;;;;5053412;28;20095;-71
2022/12/22 05:22:45;;;;;;;97.35;63.90;;;6.60;99.90;;;;;;5053096;28;20088;-70
2022/12/22 05:25:10;;;;;;;99.38;65.53;;;6.70;99.90;;;;;;5053068;28;20029;-69
2022/12/22 05:27:37;;;;;;;96.90;64.80;;;6.70;99.90;;;;;;5053369;28;20080;-71
2022/12/22 05:30:04;;;;;;;98.97;67.63;;;6.70;99.90;;;;;;5040387;28;20432;-70
2022/12/22 05:32:33;;;;;;;107.00;69.18;;;6.80;99.90;;;;;;5052847;28;20099;-73
2022/12/22 05:34:59;;;;;;;100.05;68.03;;;6.80;99.90;;;;;;5052816;28;20433;-72
2022/12/22 05:37:25;;;;;;;97.82;66.40;;;6.80;99.90;;;;;;5053038;28;20049;-72
2022/12/22 05:39:51;;;;;;;103.05;67.10;;;6.70;99.90;;;;;;5052740;28;20031;-73
2022/12/22 05:42:34;;;;;;;91.03;63.85;;;6.80;99.90;;;;;;5052340;28;20068;-72
2022/12/22 05:45:14;;;;;;;90.72;65.30;;;6.90;99.90;;;;;;5052581;28;20091;-73
2022/12/22 05:47:44;;;;;;;92.97;62.85;;;6.80;99.90;;;;;;5052820;28;20507;-73
2022/12/22 05:50:11;;;;;;;98.97;66.65;;;6.80;99.90;;;;;;5052360;28;20021;-73
2022/12/22 05:52:38;;;;;;;104.47;67.65;;;6.80;99.90;;;;;;5052204;28;20029;-72
2022/12/22 05:55:04;;;;;;;117.25;79.25;;;6.80;99.90;;;;;;5052365;28;20435;-74
2022/12/22 05:57:30;;;;;;;120.35;77.10;;;6.80;99.90;;;;;;5052577;28;20029;-72
2022/12/22 05:59:56;;;;;;;118.20;80.07;;;6.90;99.90;;;;;;5052619;28;20028;-72
2022/12/22 06:02:22;;;;;;;128.18;79.80;;;6.80;99.90;;;;;;5052301;28;20045;-74
2022/12/22 06:04:47;;;;;;;106.85;74.15;;;6.80;99.90;;;;;;5052784;28;20475;-72
2022/12/22 06:07:13;;;;;;;110.63;69.80;;;6.80;99.90;;;;;;5051969;28;20558;-71
2022/12/22 06:09:39;;;;;;;111.07;72.75;;;6.80;99.90;;;;;;5052204;28;20354;-71
2022/12/22 06:12:06;;;;;;;102.05;66.78;;;6.80;99.90;;;;;;5065717;28;20147;-73
2022/12/22 06:14:32;;;;;;;126.10;77.03;;;6.80;99.90;;;;;;5052048;28;20138;-76
2022/12/22 06:16:57;;;;;;;116.82;79.45;;;6.80;99.90;;;;;;5052261;28;20476;-71
2022/12/22 06:19:23;;;;;;;118.90;77.78;;;6.80;99.90;;;;;;5051895;28;20031;-76
2022/12/22 06:21:49;;;;;;;101.32;71.95;;;6.80;99.90;;;;;;5038094;28;20091;-73
2022/12/22 06:24:15;;;;;;;116.57;76.85;;;6.80;99.90;;;;;;5050502;28;20025;-73
2022/12/22 06:26:41;;;;;;;125.65;77.45;;;6.80;99.90;;;;;;5051310;28;20029;-73
2022/12/22 06:29:06;;;;;;;125.53;86.90;;;6.80;99.90;;;;;;5051917;28;20024;-73
2022/12/22 06:31:32;;;;;;;125.07;80.50;;;6.70;99.90;;;;;;5044632;28;20072;-73
2022/12/22 06:33:58;;;;;;;117.85;81.80;;;6.60;99.90;;;;;;5051193;28;20025;-75
2022/12/22 06:36:24;;;;;;;115.20;77.50;;;6.70;99.90;;;;;;5051666;28;20032;-75
2022/12/22 06:38:50;;;;;;;112.50;76.30;;;6.70;99.90;;;;;;5051037;28;20044;-73
2022/12/22 06:43:07;;;;;;;113.80;76.38;;;6.60;99.90;;;;;;5051411;28;20068;-74
2022/12/22 06:44:01;;;;;;;120.55;79.22;;;6.70;99.90;;;;;;5051473;28;20025;-73
2022/12/22 06:46:27;;;;;;;108.45;76.38;;;6.70;99.90;;;;;;5050794;28;20558;-74
2022/12/22 06:48:53;;;;;;;104.93;73.18;;;6.80;99.90;;;;;;5051892;28;20031;-73
2022/12/22 06:51:19;;;;;;;109.07;73.38;;;6.80;99.90;;;;;;5030092;28;20037;-73
2022/12/22 06:53:44;;;;;;;105.72;77.70;;;6.80;99.90;;;;;;5051996;28;20036;-75
2022/12/22 06:56:10;;;;;;;112.38;75.93;;;6.90;99.90;;;;;;5046166;28;20021;-72
2022/12/22 06:58:36;;;;;;;104.60;71.78;;;6.90;99.90;;;;;;5051910;28;20032;-73
2022/12/22 07:01:02;;;;;;;104.88;74.55;;;6.80;99.90;;;;;;5050591;28;20048;-74
2022/12/22 07:03:28;;;;;;;108.50;70.53;;;6.90;99.90;;;;;;5047895;28;20040;-74
2022/12/22 07:05:54;;;;;;;121.57;79.72;;;6.90;99.90;;;;;;5049636;28;20021;-73
2022/12/22 07:08:20;;;;;;;116.30;79.72;;;7.00;99.90;;;;;;5024815;28;20045;-77
2022/12/22 07:10:57;;;;;;;110.45;74.03;;;7.00;99.90;;;;;;5051574;28;20032;-73
2022/12/22 07:13:26;;;;;;;114.35;76.05;;;7.00;99.90;;;;;;5051701;28;20021;-76
2022/12/22 07:15:53;;;;;;;105.00;71.55;;;7.00;99.90;;;;;;5051436;28;20017;-73
2022/12/22 07:18:19;;;;;;;100.25;73.22;;;7.00;99.90;;;;;;5057178;28;20033;-74
2022/12/22 07:20:45;;;;;;;115.97;76.93;;;7.10;99.90;;;;;;5049496;28;20041;-72
2022/12/22 07:23:11;;;;;;;109.28;72.13;;;7.10;99.90;;;;;;5051590;28;20515;-73
2022/12/22 07:25:37;;;;;;;107.63;73.15;;;7.10;99.90;;;;;;5051779;28;20045;-73
2022/12/22 07:28:05;;;;;;;104.22;68.22;;;7.20;99.90;;;;;;5040381;28;20053;-75
2022/12/22 07:30:31;;;;;;;113.30;73.43;;;7.20;99.90;;;;;;5049815;28;20029;-73
2022/12/22 07:32:56;;;;;;;134.13;89.28;;;7.10;99.90;;;;;;5051984;28;20360;-73
2022/12/22 07:35:22;;;;;;;160.80;98.80;;;7.10;99.90;;;;;;5051324;28;20528;-73
2022/12/22 07:37:48;;;;;;;156.15;98.28;;;7.20;99.90;;;;;;5054496;28;20377;-73
2022/12/22 07:40:14;;;;;;;128.45;90.82;;;7.20;99.90;;;;;;5055464;28;20039;-72
2022/12/22 07:42:43;;;;;;;113.10;79.60;;;7.10;99.90;;;;;;5054763;28;20029;-73
2022/12/22 07:45:10;;;;;;;109.68;71.53;;;7.00;99.90;;;;;;5051538;28;20466;-72
2022/12/22 07:47:36;;;;;;;109.13;73.75;;;7.00;99.90;;;;;;5048156;28;20028;-75
2022/12/22 07:52:46;;;;;;;99.20;71.53;;;6.60;99.90;;;;;;5054241;28;20040;-72
2022/12/22 07:55:13;;;;;;;97.88;67.05;;;6.60;99.90;;;;;;5054341;28;20388;-72
2022/12/22 07:57:39;;;;;;;102.32;69.18;;;6.60;99.90;;;;;;5039389;28;20472;-73
2022/12/22 08:00:06;;;;;;;105.53;70.63;;;6.60;99.90;;;;;;5054236;28;20021;-76
2022/12/22 08:02:37;;;;;;;108.00;75.10;;;6.70;99.90;;;;;;5035549;28;20071;-75
2022/12/22 08:05:04;;;;;;;108.53;76.13;;;6.60;99.90;;;;;;5055080;28;20075;-72
2022/12/22 08:07:31;;;;;;;110.32;73.88;;;6.70;99.90;;;;;;5045134;28;20468;-73
2022/12/22 08:09:57;;;;;;;99.07;71.82;;;6.80;99.90;;;;;;5054633;28;20033;-72
2022/12/22 08:12:23;;;;;;;99.03;67.65;;;6.80;99.90;;;;;;5049831;28;20492;-72
2022/12/22 08:14:49;;;;;;;105.40;72.60;;;6.70;99.90;;;;;;5052979;28;20025;-75
2022/12/22 08:17:15;;;;;;;98.38;68.05;;;6.80;99.90;;;;;;5053770;28;20025;-71
2022/12/22 08:19:41;;;;;;;106.35;72.20;;;6.80;99.90;;;;;;5052517;28;20025;-74
2022/12/22 08:22:07;;;;;;;108.03;74.60;;;6.80;99.90;;;;;;5053013;28;20048;-76
2022/12/22 08:24:33;;;;;;;103.18;68.25;;;6.70;99.90;;;;;;5053025;28;20052;-73
2022/12/22 08:27:04;;;;;;;101.63;71.13;;;6.90;99.90;;;;;;5052602;28;20052;-76
2022/12/22 08:29:38;;;;;;;106.80;71.57;;;6.90;99.90;;;;;;5053075;28;20434;-74
2022/12/22 08:32:04;;;;;;;113.38;74.32;;;6.80;99.90;;;;;;5049632;28;20526;-74
2022/12/22 08:34:30;;;;;;;118.05;73.93;;;6.80;99.90;;;;;;5041055;28;20033;-74
2022/12/22 08:36:59;;;;;;;107.25;68.70;;;6.90;99.90;;;;;;5047557;28;20033;-74
2022/12/22 08:39:27;;;;;;;104.30;70.57;;;6.80;99.90;;;;;;5046350;28;20487;-73
2022/12/22 08:41:53;;;;;;;103.03;72.15;;;6.80;99.90;;;;;;5048387;28;20033;-73
2022/12/22 08:44:25;;;;;;;103.82;71.80;;;7.00;99.90;;;;;;5046804;28;20089;-73
2022/12/22 08:46:52;;;;;;;100.47;70.28;;;7.00;99.90;;;;;;5054015;28;20020;-74
2022/12/22 08:49:19;;;;;;;98.95;67.97;;;7.10;99.90;;;;;;5051227;28;20104;-75
2022/12/22 08:51:45;;;;;;;100.18;67.18;;;7.10;99.90;;;;;;5040972;28;20029;-74
2022/12/22 08:54:11;;;;;;;110.03;70.60;;;7.20;99.90;;;;;;5053674;28;20025;-74
2022/12/22 08:56:37;;;;;;;102.88;71.15;;;7.10;99.90;;;;;;5054031;28;20028;-76
2022/12/22 08:59:06;;;;;;;98.55;68.40;;;6.90;99.90;;;;;;5053990;28;20056;-75
2022/12/22 09:01:34;;;;;;;95.25;67.05;;;6.90;99.90;;;;;;5052604;28;20080;-74
2022/12/22 09:04:01;;;;;;;111.97;72.70;;;6.80;99.90;;;;;;5053571;28;20029;-75
2022/12/22 09:06:28;;;;;;;91.85;67.90;;;6.80;99.90;;;;;;5053953;28;20029;-74
2022/12/22 09:08:59;;;;;;;89.07;63.88;;;6.70;99.90;;;;;;5048978;28;20018;-75
2022/12/22 09:11:27;;;;;;;111.22;73.43;;;6.80;99.90;;;;;;5050894;28;20431;-75
2022/12/22 09:13:56;;;;;;;103.60;68.80;;;7.00;99.90;;;;;;5051525;28;20087;-73
2022/12/22 09:16:23;;;;;;;94.93;65.68;;;7.00;99.90;;;;;;5046835;28;20052;-74
2022/12/22 09:18:49;;;;;;;102.22;67.97;;;7.10;99.90;;;;;;5050901;28;20028;-74
2022/12/22 09:21:16;;;;;;;92.93;65.70;;;7.20;99.90;;;;;;5050018;28;20044;-73
2022/12/22 09:23:42;;;;;;;91.57;64.28;;;7.30;99.90;;;;;;5048557;28;20179;-74
2022/12/22 09:26:13;;;;;;;103.78;69.03;;;7.40;99.90;;;;;;5050892;28;20461;-72
2022/12/22 09:28:39;;;;;;;95.03;66.38;;;7.50;99.90;;;;;;5050398;28;20033;-72
2022/12/22 09:31:05;;;;;;;95.30;65.57;;;7.60;99.90;;;;;;5052409;28;20029;-73
2022/12/22 09:33:32;;;;;;;98.70;67.95;;;7.70;99.90;;;;;;5035361;28;20041;-75
2022/12/22 09:35:58;;;;;;;96.32;65.80;;;7.70;99.90;;;;;;5053092;28;20473;-71
2022/12/22 09:38:36;;;;;;;100.00;66.05;;;7.70;99.90;;;;;;5053667;28;20044;-72
2022/12/22 09:41:26;;;;;;;102.65;67.38;;;7.80;99.90;;;;;;5060844;28;20055;-75
2022/12/22 09:43:52;;;;;;;96.03;65.38;;;7.90;99.90;;;;;;5052140;28;20056;-73
2022/12/22 09:46:25;;;;;;;93.55;62.15;;;7.90;99.90;;;;;;5046254;28;20021;-72
2022/12/22 09:48:52;;;;;;;92.72;65.18;;;8.00;99.90;;;;;;5048205;28;20491;-72
2022/12/22 09:51:18;;;;;;;97.57;65.10;;;8.10;99.90;;;;;;5051979;28;20025;-72
2022/12/22 09:53:47;;;;;;;107.35;71.93;;;8.20;99.90;;;;;;5052319;28;20506;-72
2022/12/22 09:56:15;;;;;;;94.18;69.20;;;8.30;99.90;;;;;;5051662;28;20031;-72
2022/12/22 09:58:42;;;;;;;100.72;66.47;;;8.40;99.90;;;;;;5052446;28;20676;-73
2022/12/22 10:01:37;;;;;;;96.47;66.45;;;8.50;99.90;;;;;;5042341;28;20041;-75
2022/12/22 10:04:40;;;;;;;100.25;67.93;;;8.40;99.90;;;;;;5039553;28;20027;-73
2022/12/22 10:07:14;;;;;;;100.88;68.07;;;8.30;99.90;;;;;;5052383;28;20487;-72
2022/12/22 10:09:40;;;;;;;106.40;71.90;;;8.20;99.90;;;;;;5052456;28;20115;-72
2022/12/22 10:12:12;;;;;;;102.70;71.28;;;8.20;99.90;;;;;;5061698;28;20119;-75
2022/12/22 10:14:41;;;;;;;102.20;73.70;;;7.90;99.90;;;;;;5044346;28;20384;-73
2022/12/22 10:17:31;;;;;;;104.03;73.38;;;7.90;99.90;;;;;;5052479;28;20031;-73
2022/12/22 10:20:25;;;;;;;104.25;74.82;;;7.90;99.90;;;;;;5052267;28;20064;-73
2022/12/22 10:22:57;;;;;;;95.10;68.10;;;7.80;99.90;;;;;;5052199;28;20037;-73
2022/12/22 10:25:31;;;;;;;97.88;70.25;;;7.90;99.90;;;;;;5051813;28;20078;-73
2022/12/22 10:28:11;;;;;;;101.18;68.85;;;8.00;99.90;;;;;;5052282;28;20029;-76
2022/12/22 10:30:39;;;;;;;106.68;72.65;;;8.00;99.90;;;;;;5032367;28;20030;-75
2022/12/22 10:33:12;;;;;;;103.43;70.35;;;8.20;99.90;;;;;;5033996;28;20021;-74
2022/12/22 10:35:55;;;;;;;103.00;71.35;;;8.40;99.90;;;;;;5052169;28;20397;-73
2022/12/22 10:38:31;;;;;;;100.25;72.55;;;8.50;99.90;;;;;;5052233;28;20377;-73
2022/12/22 10:41:03;;;;;;;95.93;67.88;;;8.70;99.90;;;;;;5052069;28;20511;-72
2022/12/22 10:43:40;;;;;;;99.33;68.67;;;8.40;99.90;;;;;;5052051;28;20033;-73
2022/12/22 10:46:06;;;;;;;106.40;69.72;;;8.60;99.90;;;;;;5038739;28;20464;-74
2022/12/22 10:48:35;;;;;;;109.57;73.47;;;8.70;99.90;;;;;;5051906;28;20075;-72
2022/12/22 10:51:04;;;;;;;108.47;73.13;;;8.80;99.90;;;;;;5051738;28;20025;-74
2022/12/22 10:53:40;;;;;;;106.95;72.50;;;8.90;99.90;;;;;;5052073;28;20028;-73
2022/12/22 10:56:11;;;;;;;104.78;74.50;;;8.80;99.90;;;;;;5051831;28;20028;-73
2022/12/22 10:58:50;;;;;;;104.88;75.72;;;8.60;99.90;;;;;;5051685;28;20112;-73
2022/12/22 11:01:29;;;;;;;108.95;74.55;;;8.80;99.90;;;;;;5051908;28;20098;-73
2022/12/22 11:03:57;;;;;;;109.40;74.35;;;8.90;99.90;;;;;;5051948;28;20067;-73
2022/12/22 11:06:23;;;;;;;108.68;76.22;;;8.90;99.90;;;;;;5051649;28;20025;-76
2022/12/22 11:08:49;;;;;;;105.05;76.57;;;8.90;99.90;;;;;;5051773;28;20025;-73
2022/12/22 11:11:39;;;;;;;116.22;82.93;;;8.80;99.90;;;;;;5052223;28;20181;-73
2022/12/22 11:14:05;;;;;;;109.30;82.60;;;8.80;99.90;;;;;;5055527;28;20025;-72
2022/12/22 11:16:39;;;;;;;116.93;85.07;;;8.90;99.90;;;;;;5056049;28;20032;-73
2022/12/22 11:19:39;;;;;;;123.38;84.47;;;9.10;99.90;;;;;;5055526;28;20425;-76
2022/12/22 11:22:08;;;;;;;115.32;81.07;;;9.00;99.90;;;;;;5055072;28;20481;-76
2022/12/22 11:24:46;;;;;;;112.47;78.45;;;8.90;99.90;;;;;;5055956;28;20076;-73
2022/12/22 11:27:48;;;;;;;112.28;78.82;;;9.00;99.90;;;;;;5055224;28;20721;-74
2022/12/22 11:30:31;;;;;;;123.35;83.32;;;8.80;99.90;;;;;;4955167;29;20038;-75
2022/12/22 11:33:26;;;;;;;104.43;74.82;;;8.80;99.90;;;;;;4955248;29;20114;-74
2022/12/22 11:36:00;;;;;;;109.47;74.97;;;8.90;99.90;;;;;;4947264;29;20051;-73
2022/12/22 11:38:34;;;;;;;102.22;70.80;;;8.70;99.90;;;;;;4952030;29;20063;-72
2022/12/22 11:41:21;;;;;;;105.60;76.72;;;8.80;99.90;;;;;;4954998;29;20047;-74
2022/12/22 11:43:58;;;;;;;113.38;77.38;;;8.90;99.90;;;;;;4942951;29;20031;-73
2022/12/22 11:46:50;;;;;;;106.93;76.75;;;8.90;99.90;;;;;;4955102;29;20398;-76
2022/12/22 11:49:53;;;;;;;108.55;76.10;;;8.90;99.90;;;;;;4943939;29;20123;-73
2022/12/22 11:52:35;;;;;;;111.88;76.60;;;9.10;99.90;;;;;;4955217;29;20042;-74
2022/12/22 11:55:06;;;;;;;103.63;74.05;;;9.00;99.90;;;;;;4955057;29;20039;-73
2022/12/22 11:58:13;;;;;;;105.30;75.57;;;9.10;99.90;;;;;;4954994;29;20551;-73
2022/12/22 12:01:05;;;;;;;105.85;72.13;;;9.10;99.90;;;;;;4898007;29;20045;-73
2022/12/22 12:04:03;;;;;;;99.15;72.10;;;9.30;99.90;;;;;;4897781;29;20064;-73
2022/12/22 12:06:34;;;;;;;103.40;68.07;;;9.00;99.90;;;;;;4865264;29;20052;-72
2022/12/22 12:09:16;;;;;;;113.13;75.82;;;9.00;99.90;;;;;;4892702;29;20438;-73
2022/12/22 12:11:55;;;;;;;112.47;76.50;;;9.20;99.90;;;;;;4897922;29;20043;-73
2022/12/22 12:14:45;;;;;;;99.47;69.95;;;9.30;99.90;;;;;;4897439;29;20040;-73
2022/12/22 12:17:27;;;;;;;99.90;73.13;;;9.30;99.90;;;;;;4897155;29;20052;-73
2022/12/22 12:20:07;;;;;;;109.53;76.00;;;9.30;99.90;;;;;;4897577;29;20060;-72
2022/12/22 12:23:06;;;;;;;100.35;70.20;;;9.40;99.90;;;;;;4879884;29;20454;-73
2022/12/22 12:25:38;;;;;;;101.22;70.55;;;9.40;99.90;;;;;;4822864;29;20043;-73
2022/12/22 12:28:14;;;;;;;106.78;76.72;;;9.30;99.90;;;;;;4823250;29;20042;-73
2022/12/22 12:30:59;;;;;;;102.75;74.15;;;9.10;99.90;;;;;;4817378;29;20768;-72
2022/12/22 12:33:35;;;;;;;98.10;70.63;;;9.00;99.90;;;;;;4814451;29;20491;-76
2022/12/22 12:36:20;;;;;;;102.43;71.70;;;9.00;99.90;;;;;;4845376;29;20100;-72
2022/12/22 12:39:14;;;;;;;104.70;72.40;;;9.00;99.90;;;;;;4877690;29;20437;-71
2022/12/22 12:41:45;;;;;;;103.00;73.45;;;9.00;99.90;;;;;;4877713;29;20478;-72
2022/12/22 12:44:15;;;;;;;107.20;79.00;;;9.20;99.90;;;;;;4938264;28;20031;-71
2022/12/22 12:46:44;;;;;;;97.15;68.60;;;9.10;99.90;;;;;;4973326;28;20063;-71
2022/12/22 12:49:32;;;;;;;103.82;69.15;;;9.30;99.90;;;;;;4964189;28;20221;-71
2022/12/22 12:52:05;;;;;;;132.90;87.32;;;9.40;99.90;;;;;;4948060;29;20533;-76
2022/12/22 12:54:31;;;;;;;107.20;72.85;;;9.40;99.90;;;;;;4933125;29;20048;-71
2022/12/22 12:57:06;;;;;;;104.10;72.20;;;9.50;99.90;;;;;;4952109;29;20027;-72
2022/12/22 12:59:40;;;;;;;100.50;69.75;;;9.50;99.90;;;;;;4953379;28;20086;-71
2022/12/22 13:02:35;;;;;;;100.75;69.38;;;9.50;99.90;;;;;;5000371;28;20045;-72
2022/12/22 13:05:10;;;;;;;101.65;68.30;;;9.60;99.90;;;;;;5030262;28;20399;-71
2022/12/22 13:08:03;;;;;;;92.28;64.90;;;9.70;99.90;;;;;;5031926;28;20040;-73
2022/12/22 13:10:31;;;;;;;99.97;67.03;;;9.60;99.90;;;;;;5027485;28;20025;-74
2022/12/22 13:12:57;;;;;;;94.20;66.47;;;9.60;99.90;;;;;;5022987;28;20021;-71
2022/12/22 13:15:36;;;;;;;110.85;73.75;;;9.50;99.90;;;;;;5031202;28;20115;-71
2022/12/22 13:18:08;;;;;;;102.45;70.88;;;9.50;99.90;;;;;;5025494;28;20029;-71
2022/12/22 13:20:36;;;;;;;91.03;64.87;;;9.60;99.90;;;;;;5031789;28;20037;-71
2022/12/22 13:23:09;;;;;;;95.70;67.05;;;9.60;99.90;;;;;;5045882;28;20333;-71
2022/12/22 13:25:47;;;;;;;97.72;65.50;;;9.60;99.90;;;;;;5052511;28;20032;-71
2022/12/22 13:28:18;;;;;;;93.20;67.72;;;9.70;99.90;;;;;;5052765;28;20075;-71
2022/12/22 13:30:56;;;;;;;94.75;66.40;;;9.60;99.90;;;;;;5053042;28;20025;-71
2022/12/22 13:33:27;;;;;;;104.50;71.35;;;9.60;99.90;;;;;;5042012;28;20042;-71
2022/12/22 13:35:56;;;;;;;96.97;70.93;;;9.70;99.90;;;;;;5041175;28;20473;-71
2022/12/22 13:38:26;;;;;;;96.63;70.22;;;9.70;99.90;;;;;;5048336;28;20037;-72
2022/12/22 13:40:52;;;;;;;97.43;68.75;;;9.80;99.90;;;;;;5050720;28;20037;-71
2022/12/22 13:43:20;;;;;;;93.93;66.38;;;9.80;99.90;;;;;;5053296;28;20372;-71
2022/12/22 13:45:48;;;;;;;87.72;66.00;;;9.90;99.90;;;;;;5043841;28;20118;-71
2022/12/22 13:48:23;;;;;;;113.00;71.95;;;10.00;99.90;;;;;;5039756;28;20376;-71
2022/12/22 13:50:55;;;;;;;98.63;68.88;;;9.90;99.90;;;;;;5053106;28;20029;-72
2022/12/22 13:53:44;;;;;;;95.78;64.85;;;10.00;99.90;;;;;;5052536;28;20025;-71
2022/12/22 13:56:23;;;;;;;88.40;63.83;;;10.00;99.90;;;;;;5046211;28;20029;-71
2022/12/22 13:58:57;;;;;;;89.78;61.83;;;9.90;99.90;;;;;;5032942;28;20033;-71
2022/12/22 14:01:23;;;;;;;97.30;70.00;;;9.90;99.90;;;;;;5050259;28;20064;-71
2022/12/22 14:03:57;;;;;;;108.03;73.90;;;9.90;99.90;;;;;;5051182;28;20071;-71
2022/12/22 14:06:35;;;;;;;99.43;69.70;;;9.90;99.90;;;;;;5034115;28;20033;-71
2022/12/22 14:09:12;;;;;;;104.53;72.97;;;9.80;99.90;;;;;;5041621;28;20024;-71
2022/12/22 14:11:38;;;;;;;95.22;69.35;;;9.80;99.90;;;;;;5059121;28;20031;-72
2022/12/22 14:14:16;;;;;;;90.80;66.43;;;9.80;99.90;;;;;;5039775;28;20052;-72
2022/12/22 14:16:48;;;;;;;95.97;70.07;;;9.70;99.90;;;;;;5050685;28;20136;-71
2022/12/22 14:19:16;;;;;;;97.82;65.68;;;9.60;99.90;;;;;;5054208;28;20036;-72
2022/12/22 14:21:45;;;;;;;98.65;71.32;;;9.60;99.90;;;;;;5053595;28;20053;-72
2022/12/22 14:24:18;;;;;;;110.05;79.07;;;9.60;99.90;;;;;;5031676;28;20045;-73
2022/12/22 14:26:44;;;;;;;111.97;78.70;;;9.60;99.90;;;;;;5051064;28;20036;-72
2022/12/22 14:29:16;;;;;;;127.57;83.60;;;9.60;99.90;;;;;;5032700;28;20477;-72
2022/12/22 14:31:53;;;;;;;104.45;72.45;;;9.50;99.90;;;;;;5035847;28;20053;-71
2022/12/22 14:34:33;;;;;;;140.13;94.22;;;9.50;99.90;;;;;;5032395;28;20482;-72
2022/12/22 14:37:00;;;;;;;142.13;99.47;;;9.50;99.90;;;;;;5032530;28;20032;-71
2022/12/22 14:39:32;;;;;;;138.65;88.18;;;9.50;99.90;;;;;;5032175;28;20022;-71
2022/12/22 14:42:10;;;;;;;100.90;68.53;;;9.40;99.90;;;;;;5032052;28;20095;-71
2022/12/22 14:44:45;;;;;;;114.68;80.40;;;9.50;99.90;;;;;;5045646;28;20028;-71
2022/12/22 14:47:10;;;;;;;121.88;80.32;;;9.40;99.90;;;;;;5051829;28;20043;-71
2022/12/22 14:49:59;;;;;;;121.40;83.07;;;9.40;99.90;;;;;;5051588;28;20431;-72
2022/12/22 14:52:43;;;;;;;113.07;72.85;;;9.40;99.90;;;;;;5050691;28;20080;-72
2022/12/22 14:55:27;;;;;;;113.20;80.25;;;9.40;99.90;;;;;;5045321;28;20045;-71
2022/12/22 14:58:14;;;;;;;118.43;78.20;;;9.40;99.90;;;;;;5051596;28;20212;-72
2022/12/22 15:00:46;;;;;;;107.90;77.32;;;9.40;99.90;;;;;;5052246;28;20041;-73
2022/12/22 15:03:24;;;;;;;109.20;77.80;;;9.40;99.90;;;;;;5051347;28;20037;-73
2022/12/22 15:05:50;;;;;;;119.20;82.45;;;9.30;99.90;;;;;;5048695;28;20103;-74
2022/12/22 15:08:42;;;;;;;124.03;82.78;;;9.20;99.90;;;;;;5048107;28;20061;-73
2022/12/22 15:11:11;;;;;;;105.70;74.75;;;9.20;99.90;;;;;;5050939;28;20021;-73
2022/12/22 15:13:37;;;;;;;116.78;83.72;;;9.20;99.90;;;;;;5048035;28;20032;-73
2022/12/22 15:16:03;;;;;;;122.68;89.32;;;9.20;99.90;;;;;;5050195;28;20402;-73
2022/12/22 15:18:29;;;;;;;92.90;66.45;;;9.20;99.90;;;;;;5050420;28;20044;-73
2022/12/22 15:20:56;;;;;;;102.10;69.57;;;9.10;99.90;;;;;;5050815;28;20041;-74
2022/12/22 15:23:22;;;;;;;95.13;66.40;;;9.20;99.90;;;;;;5050560;28;20037;-75
2022/12/22 15:25:48;;;;;;;95.15;65.10;;;9.10;99.90;;;;;;5016598;28;20047;-72
2022/12/22 15:28:13;;;;;;;97.18;67.68;;;9.10;99.90;;;;;;5048729;28;20468;-71
2022/12/22 15:30:40;;;;;;;90.32;64.00;;;9.10;99.90;;;;;;5049325;28;20021;-72
2022/12/22 15:33:17;;;;;;;98.38;65.57;;;9.10;99.90;;;;;;5049082;28;20460;-72
2022/12/22 15:35:43;;;;;;;112.10;75.78;;;9.00;99.90;;;;;;5044835;28;20032;-73
2022/12/22 15:38:15;;;;;;;124.20;85.80;;;9.10;99.90;;;;;;5040411;28;20017;-72
2022/12/22 15:40:41;;;;;;;126.50;85.88;;;9.10;99.90;;;;;;5040961;28;20028;-72
2022/12/22 15:43:07;;;;;;;115.43;80.13;;;9.10;99.90;;;;;;5042173;28;20455;-70
2022/12/22 15:45:35;;;;;;;113.57;81.45;;;9.00;99.90;;;;;;5042294;28;20017;-71
2022/12/22 15:48:02;;;;;;;116.65;82.97;;;9.00;99.90;;;;;;5044919;28;20083;-70
2022/12/22 15:50:32;;;;;;;119.95;82.53;;;9.00;99.90;;;;;;5043395;28;20049;-71
2022/12/22 15:52:59;;;;;;;124.57;88.57;;;9.10;99.90;;;;;;5043067;28;20392;-72
2022/12/22 15:55:25;;;;;;;148.23;98.28;;;9.10;99.90;;;;;;5046861;28;20447;-70
2022/12/22 15:57:56;;;;;;;140.20;99.90;;;9.20;99.90;;;;;;5043123;28;20029;-78
2022/12/22 16:00:23;;;;;;;136.77;96.90;;;9.20;99.90;;;;;;5052516;28;20056;-70
2022/12/22 16:02:49;;;;;;;136.23;93.20;;;9.30;99.90;;;;;;5054703;28;20083;-73
2022/12/22 16:05:16;;;;;;;127.85;89.50;;;9.30;99.90;;;;;;5051551;28;20044;-72
2022/12/22 16:07:43;;;;;;;123.32;84.88;;;9.30;99.90;;;;;;5047376;28;20096;-72
2022/12/22 16:10:27;;;;;;;117.22;81.90;;;9.30;99.90;;;;;;5044642;28;20465;-75
2022/12/22 16:12:59;;;;;;;105.72;75.95;;;9.40;99.90;;;;;;5045564;28;20021;-74
2022/12/22 16:15:37;;;;;;;100.20;71.70;;;9.40;99.90;;;;;;5043955;28;20053;-73
2022/12/22 16:18:03;;;;;;;119.70;83.25;;;9.40;99.90;;;;;;5049749;28;20020;-71
2022/12/22 16:20:36;;;;;;;153.40;100.03;;;9.40;99.90;;;;;;5047981;28;20074;-72
2022/12/22 16:23:04;;;;;;;126.53;90.45;;;9.40;99.90;;;;;;5051732;28;20598;-73
2022/12/22 16:25:35;;;;;;;130.10;91.55;;;9.40;99.90;;;;;;5051966;28;20041;-72
2022/12/22 16:28:02;;;;;;;122.07;86.28;;;9.40;99.90;;;;;;5042426;28;20022;-72